F/V J. Louis Vincent — FQBL — position and weather

sailwx.info

Track history (hours):
 
Tides and Currents Weather Stations Pressure Air Temp Water Temp Dewpoint Dewpoint Depression Visibility Wind Speed Wind Dir Waves Ship Positions

F/V J. Louis Vincent

Last reported at 2015-Aug-04 01:33 UTC. Time now 2015-Aug-04 03:20 UTC.
Position N 43°20' E 003°49'.

Length 29 m.

Type: Fishing. MMSI: 227146600.

Date/timePositionNaut miles runAvg speedWind from/ knotsBaromVisibWave heightAir tempDewpointWater temp
2015-Aug-04 01:33N 43°20' E 003°49'7 0.8
2015-Aug-03 17:08N 43°24' E 003°42'0 0.0
2015-Aug-03 16:33N 43°24' E 003°42'0 0.4
2015-Aug-03 15:33N 43°24' E 003°42'5 5.2
2015-Aug-03 14:32N 43°19' E 003°41'1111.6
2015-Aug-03 13:33N 43°07' E 003°40'1212.2
2015-Aug-03 12:33N 42°55' E 003°38'4 3.6
2015-Aug-03 11:32N 42°52' E 003°34'5 4.4
2015-Aug-03 10:20N 42°50' E 003°28'6 1.4
2015-Aug-03 06:23N 42°45' E 003°23'5 4.5
2015-Aug-03 05:22N 42°50' E 003°23'  
2015-Jul-31 17:25N 43°24' E 003°43'13 6.5
2015-Jul-31 15:27N 43°11' E 003°39'1111.8
2015-Jul-31 14:33N 43°01' E 003°36'23 1.1
2015-Jul-30 17:19N 43°24' E 003°42'4 5.0
2015-Jul-30 16:28N 43°22' E 003°47'29 9.9
2015-Jul-30 13:33N 43°04' E 004°18'5 4.4
2015-Jul-30 12:25N 43°03' E 004°25'4 4.2
2015-Jul-30 11:33N 43°02' E 004°30'3 2.9
2015-Jul-30 10:33N 42°60' E 004°32'4 4.3
2015-Jul-30 09:33N 42°58' E 004°38'4 4.3
2015-Jul-30 08:33N 42°58' E 004°44'2 1.8
2015-Jul-30 07:33N 42°59' E 004°46'4 4.1
2015-Jul-30 06:33N 42°60' E 004°40'4 4.3
2015-Jul-30 05:33N 43°01' E 004°35'4 4.3
2015-Jul-30 04:33N 43°02' E 004°29'10 9.9
2015-Jul-30 03:31N 43°07' E 004°17'1411.4
2015-Jul-30 02:20N 43°15' E 004°02'2 0.2
2015-Jul-29 15:16N 43°14' E 004°00'811.7
2015-Jul-29 14:33N 43°08' E 004°09'5 5.1
2015-Jul-29 13:33N 43°05' E 004°15'4 4.4
2015-Jul-29 12:32N 43°02' E 004°20'4 4.3
2015-Jul-29 11:33N 43°01' E 004°25'5 4.5
2015-Jul-29 10:33N 42°59' E 004°31'4 4.4
2015-Jul-29 09:33N 42°58' E 004°36'4 4.3
2015-Jul-29 08:33N 42°58' E 004°42'3 2.7
2015-Jul-29 07:33N 42°58' E 004°46'4 3.8
2015-Jul-29 06:33N 42°59' E 004°41'4 4.4
2015-Jul-29 05:33N 43°00' E 004°35'4 4.4
2015-Jul-29 04:33N 43°01' E 004°29'10 9.6
2015-Jul-29 03:33N 43°07' E 004°18'1111.5
2015-Jul-29 02:33N 43°13' E 004°05'20 2.2
2015-Jul-28 17:18N 43°24' E 003°42'2 2.5
2015-Jul-28 16:31N 43°24' E 003°45'1111.7
2015-Jul-28 15:33N 43°19' E 003°59'1211.9
2015-Jul-28 14:33N 43°15' E 004°14'8 8.0
2015-Jul-28 13:33N 43°12' E 004°24'4 4.4
2015-Jul-28 12:33N 43°09' E 004°29'4 4.4
2015-Jul-28 11:33N 43°08' E 004°35'1 1.3
2015-Jul-28 10:33N 43°07' E 004°36'4 4.3
2015-Jul-28 09:33N 43°06' E 004°42'4 4.3
2015-Jul-28 08:33N 43°04' E 004°47'3 3.0
2015-Jul-28 07:33N 43°01' E 004°48'4 3.6
2015-Jul-28 06:33N 43°02' E 004°44'4 4.4
2015-Jul-28 05:33N 43°03' E 004°38'4 4.3
2015-Jul-28 04:33N 43°04' E 004°32'9 9.2
2015-Jul-28 03:32N 43°08' E 004°20'1212.0
2015-Jul-28 02:33N 43°14' E 004°07'1212.0
2015-Jul-28 01:33N 43°20' E 003°52'9 1.0
2015-Jul-27 17:20N 43°24' E 003°42'13 7.0
2015-Jul-27 15:31N 43°18' E 003°57'1311.9
2015-Jul-27 14:27N 43°12' E 004°13'4 5.0
2015-Jul-27 13:33N 43°09' E 004°18'4 4.4
2015-Jul-27 12:32N 43°07' E 004°23'4 4.3
2015-Jul-27 11:33N 43°05' E 004°28'3 3.5
2015-Jul-27 10:33N 43°05' E 004°33'4 4.2
2015-Jul-27 09:33N 43°04' E 004°39'4 4.2
2015-Jul-27 08:34N 43°02' E 004°44'1 1.0
2015-Jul-27 07:33N 43°02' E 004°45'4 3.8
2015-Jul-27 06:33N 43°02' E 004°40'4 4.2
2015-Jul-27 05:33N 43°03' E 004°34'4 4.3
2015-Jul-27 04:33N 43°04' E 004°29'1010.1
2015-Jul-27 03:33N 43°09' E 004°17'1211.7
2015-Jul-27 02:34N 43°16' E 004°03'  
Track history (hours):
 
Tides and Currents Weather Stations Pressure Air Temp Water Temp Dewpoint Dewpoint Depression Visibility Wind Speed Wind Dir Waves Ship Positions

F/V J. Louis Vincent

Last reported at 2015-Aug-04 01:33 UTC. Time now 2015-Aug-04 03:20 UTC.
Position N 43°20' E 003°49'.

Length 29 m.

Type: Fishing. MMSI: 227146600.

Date/timePositionNaut miles runAvg speedWind from/ knotsBaromVisibWave heightAir tempDewpointWater temp
2015-Aug-04 01:33N 43°20' E 003°49'7 0.8
2015-Aug-03 17:08N 43°24' E 003°42'0 0.0
2015-Aug-03 16:33N 43°24' E 003°42'0 0.4
2015-Aug-03 15:33N 43°24' E 003°42'5 5.2
2015-Aug-03 14:32N 43°19' E 003°41'1111.6
2015-Aug-03 13:33N 43°07' E 003°40'1212.2
2015-Aug-03 12:33N 42°55' E 003°38'4 3.6
2015-Aug-03 11:32N 42°52' E 003°34'5 4.4
2015-Aug-03 10:20N 42°50' E 003°28'6 1.4
2015-Aug-03 06:23N 42°45' E 003°23'5 4.5
2015-Aug-03 05:22N 42°50' E 003°23'  
2015-Jul-31 17:25N 43°24' E 003°43'13 6.5
2015-Jul-31 15:27N 43°11' E 003°39'1111.8
2015-Jul-31 14:33N 43°01' E 003°36'23 1.1
2015-Jul-30 17:19N 43°24' E 003°42'4 5.0
2015-Jul-30 16:28N 43°22' E 003°47'29 9.9
2015-Jul-30 13:33N 43°04' E 004°18'5 4.4
2015-Jul-30 12:25N 43°03' E 004°25'4 4.2
2015-Jul-30 11:33N 43°02' E 004°30'3 2.9
2015-Jul-30 10:33N 42°60' E 004°32'4 4.3
2015-Jul-30 09:33N 42°58' E 004°38'4 4.3
2015-Jul-30 08:33N 42°58' E 004°44'2 1.8
2015-Jul-30 07:33N 42°59' E 004°46'4 4.1
2015-Jul-30 06:33N 42°60' E 004°40'4 4.3
2015-Jul-30 05:33N 43°01' E 004°35'4 4.3
2015-Jul-30 04:33N 43°02' E 004°29'10 9.9
2015-Jul-30 03:31N 43°07' E 004°17'1411.4
2015-Jul-30 02:20N 43°15' E 004°02'2 0.2
2015-Jul-29 15:16N 43°14' E 004°00'811.7
2015-Jul-29 14:33N 43°08' E 004°09'5 5.1
2015-Jul-29 13:33N 43°05' E 004°15'4 4.4
2015-Jul-29 12:32N 43°02' E 004°20'4 4.3
2015-Jul-29 11:33N 43°01' E 004°25'5 4.5
2015-Jul-29 10:33N 42°59' E 004°31'4 4.4
2015-Jul-29 09:33N 42°58' E 004°36'4 4.3
2015-Jul-29 08:33N 42°58' E 004°42'3 2.7
2015-Jul-29 07:33N 42°58' E 004°46'4 3.8
2015-Jul-29 06:33N 42°59' E 004°41'4 4.4
2015-Jul-29 05:33N 43°00' E 004°35'4 4.4
2015-Jul-29 04:33N 43°01' E 004°29'10 9.6
2015-Jul-29 03:33N 43°07' E 004°18'1111.5
2015-Jul-29 02:33N 43°13' E 004°05'20 2.2
2015-Jul-28 17:18N 43°24' E 003°42'2 2.5
2015-Jul-28 16:31N 43°24' E 003°45'1111.7
2015-Jul-28 15:33N 43°19' E 003°59'1211.9
2015-Jul-28 14:33N 43°15' E 004°14'8 8.0
2015-Jul-28 13:33N 43°12' E 004°24'4 4.4
2015-Jul-28 12:33N 43°09' E 004°29'4 4.4
2015-Jul-28 11:33N 43°08' E 004°35'1 1.3
2015-Jul-28 10:33N 43°07' E 004°36'4 4.3
2015-Jul-28 09:33N 43°06' E 004°42'4 4.3
2015-Jul-28 08:33N 43°04' E 004°47'3 3.0
2015-Jul-28 07:33N 43°01' E 004°48'4 3.6
2015-Jul-28 06:33N 43°02' E 004°44'4 4.4
2015-Jul-28 05:33N 43°03' E 004°38'4 4.3
2015-Jul-28 04:33N 43°04' E 004°32'9 9.2
2015-Jul-28 03:32N 43°08' E 004°20'1212.0
2015-Jul-28 02:33N 43°14' E 004°07'1212.0
2015-Jul-28 01:33N 43°20' E 003°52'9 1.0
2015-Jul-27 17:20N 43°24' E 003°42'13 7.0
2015-Jul-27 15:31N 43°18' E 003°57'1311.9
2015-Jul-27 14:27N 43°12' E 004°13'4 5.0
2015-Jul-27 13:33N 43°09' E 004°18'4 4.4
2015-Jul-27 12:32N 43°07' E 004°23'4 4.3
2015-Jul-27 11:33N 43°05' E 004°28'3 3.5
2015-Jul-27 10:33N 43°05' E 004°33'4 4.2
2015-Jul-27 09:33N 43°04' E 004°39'4 4.2
2015-Jul-27 08:34N 43°02' E 004°44'1 1.0
2015-Jul-27 07:33N 43°02' E 004°45'4 3.8
2015-Jul-27 06:33N 43°02' E 004°40'4 4.2
2015-Jul-27 05:33N 43°03' E 004°34'4 4.3
2015-Jul-27 04:33N 43°04' E 004°29'1010.1
2015-Jul-27 03:33N 43°09' E 004°17'1211.7
2015-Jul-27 02:34N 43°16' E 004°03'  

Dump ship's entire track history